Indian Wells, California
Current Conditions -  °F | °C
As of 7:17 PM on Monday 26 Jan 2015 (Local Time) from KTRM Reporting Station
Light Rain Light Rain  
Wind Chill: 57°   Ceiling: 2900
Heat Index: 57°   Visibility: 4mi
Dew Point: 56°   Wind: 0mph
Humidity: 96%   Direction: NA
Pressure: 30.11"   Gusts: NA
Location:  33.72°N, 116.31°W
Report Text: KTRM 270317Z AUTO 00000KT 4SM -RA BR BKN029 OVC034 14/13 A3011 RMK AO2 P0001 T01390133 TSNO
Loading
Personal Weather Stations






























Interactive Weather Map New forecast layout! Learn more

10-Day Weather Forecast

Advertisements
Track Severe Weather on mobile